Plaucheville, Louisiana
Current Conditions -  °F | °C
As of 9:55 AM on Sunday 23 Nov 2014 (Local Time) from KOPL Reporting Station
Overcast Overcast  
Wind Chill: 66°   Ceiling: 2500
Heat Index: 66°   Visibility: 10mi
Dew Point: 61°   Wind: 14mph
Humidity: 83%   Direction: 220°SW
Pressure: 29.65"   Gusts: 21mph
Location:  30.97°N, 91.98°W
Report Text: KOPL 231555Z AUTO 22012G18KT 10SM SCT015 BKN025 OVC033 19/16 A2965 RMK AO2 T01900160
Loading
Personal Weather Stations






























Interactive Weather Map New forecast layout! Learn more

10-Day Weather Forecast

Advertisements
Track Severe Weather on mobile